Time;durP1;ratioP1;P1;durP2;ratioP2;P2;SDS_P1;SDS_P2;PMS_P1;PMS_P2;Temp;Humidity;BMP_temperature;BMP_pressure;BME280_temperature;BME280_humidity;BME280_pressure;Samples;Min_cycle;Max_cycle;Signal;HPM_P1;HPM_P2
2023/10/21 07:23:27;;;;;;;3.75;2.60;;;;;;;-145.79;100.00;75775.16;5312181;27;20351;-71
2023/10/21 07:25:58;;;;;;;1.83;1.50;;;;;;;-145.79;100.00;75796.34;5300305;28;20043;-73
2023/10/21 07:28:30;;;;;;;1.77;1.23;;;;;;;-145.79;100.00;75806.94;5286154;28;20036;-73
2023/10/21 07:31:02;;;;;;;1.33;1.10;;;;;;;-145.79;100.00;75796.34;5299862;28;20024;-72
2023/10/21 07:33:33;;;;;;;1.65;1.00;;;;;;;-145.79;100.00;75817.53;5289628;28;20427;-72
2023/10/21 07:36:04;;;;;;;2.22;1.00;;;;;;;-145.79;100.00;75815.41;5292480;28;20025;-73
2023/10/21 07:38:39;;;;;;;1.58;1.08;;;;;;;-145.79;100.00;75821.75;5297432;28;20039;-72
2023/10/21 07:41:17;;;;;;;2.30;1.10;;;;;;;-145.79;100.00;75826.00;5297969;28;20111;-72
2023/10/21 07:43:51;;;;;;;1.42;0.90;;;;;;;-145.79;100.00;75834.47;5299392;28;20289;-73
2023/10/21 07:46:22;;;;;;;1.27;0.70;;;;;;;-145.79;100.00;75840.84;5291864;28;20427;-73
2023/10/21 07:48:56;;;;;;;2.05;1.17;;;;;;;-145.79;100.00;75836.59;5299591;28;20052;-73
2023/10/21 07:51:31;;;;;;;2.05;1.85;;;;;;;-145.79;100.00;75840.84;5296785;28;20052;-73
2023/10/21 07:54:03;;;;;;;1.30;1.02;;;;;;;-145.79;100.00;75842.97;5297579;28;20039;-73
2023/10/21 07:56:34;;;;;;;1.63;0.80;;;;;;;-145.79;100.00;75851.44;5290267;28;20039;-73
2023/10/21 07:59:05;;;;;;;1.40;0.95;;;;;;;-145.79;100.00;75847.19;5295293;28;20480;-73
2023/10/21 08:01:37;;;;;;;1.63;0.90;;;;;;;-145.79;100.00;75855.66;5297995;28;20076;-73
2023/10/21 08:04:09;;;;;;;2.15;1.30;;;;;;;-145.79;100.00;75851.44;5297446;28;20417;-73
2023/10/21 08:06:43;;;;;;;1.60;0.82;;;;;;;-145.79;100.00;75845.06;5291305;28;20044;-73
2023/10/21 08:09:15;;;;;;;6.33;0.90;;;;;;;-145.79;100.00;75847.19;5282354;28;20033;-74
2023/10/21 08:11:46;;;;;;;1.63;0.90;;;;;;;-145.79;100.00;75847.19;5296180;28;20085;-74
2023/10/21 08:14:18;;;;;;;1.10;0.70;;;;;;;-145.79;100.00;75849.31;5289113;28;20379;-74
2023/10/21 08:16:49;;;;;;;1.23;0.85;;;;;;;-145.79;100.00;75830.25;5299029;28;20371;-74
2023/10/21 08:19:22;;;;;;;4.65;3.28;;;;;;;-145.79;100.00;75830.25;5299743;28;20075;-74
2023/10/21 08:21:53;;;;;;;1.85;1.00;;;;;;;-145.79;100.00;75821.75;5307779;28;20035;-74
2023/10/21 08:24:27;;;;;;;1.40;0.80;;;;;;;-145.79;100.00;75817.53;5307897;28;20024;-74
2023/10/21 08:26:59;;;;;;;0.95;0.80;;;;;;;-145.79;100.00;75815.41;5317910;28;20016;-74
2023/10/21 08:29:30;;;;;;;1.20;1.00;;;;;;;-145.79;100.00;75821.75;5310874;28;20031;-74
2023/10/21 08:32:02;;;;;;;1.63;0.90;;;;;;;-145.79;100.00;75809.06;5320237;28;20623;-73
2023/10/21 08:34:36;;;;;;;0.73;0.73;;;;;;;-145.79;100.00;75815.41;5307459;28;20165;-72
2023/10/21 08:37:08;;;;;;;1.80;1.23;;;;;;;-145.79;100.00;75813.28;5306165;28;20024;-71
2023/10/21 08:39:39;;;;;;;1.60;0.63;;;;;;;-145.79;100.00;75817.53;5298597;28;20688;-72
2023/10/21 08:42:10;;;;;;;2.15;0.90;;;;;;;-145.79;100.00;75823.88;5301955;28;20047;-74
2023/10/21 08:44:42;;;;;;;2.30;0.93;;;;;;;-145.79;100.00;75830.25;5298789;28;20035;-70
2023/10/21 08:47:16;;;;;;;1.80;0.77;;;;;;;-145.79;100.00;75836.59;5301415;28;20066;-75
2023/10/21 08:49:49;;;;;;;1.35;0.80;;;;;;;-145.79;100.00;75834.47;5306379;28;20081;-75
2023/10/21 08:52:21;;;;;;;1.55;1.05;;;;;;;-145.79;100.00;75840.84;5297273;28;20337;-76
2023/10/21 08:54:52;;;;;;;2.72;0.98;;;;;;;-145.79;100.00;75838.72;5305890;28;20028;-73
2023/10/21 08:57:24;;;;;;;2.33;0.80;;;;;;;-145.79;100.00;75836.59;5301356;28;20457;-74
2023/10/21 08:59:55;;;;;;;1.15;0.70;;;;;;;-145.79;100.00;75836.59;5299709;28;20024;-74
2023/10/21 09:02:27;;;;;;;1.58;1.00;;;;;;;-145.79;100.00;75815.41;5299854;28;20495;-74
2023/10/21 09:04:59;;;;;;;3.53;1.80;;;;;;;-145.79;98.71;75842.97;5296472;28;20108;-73
2023/10/21 09:07:50;;;;;;;2.15;0.90;;;;;;;-145.79;99.47;75845.06;5302688;28;20038;-75
2023/10/21 09:10:22;;;;;;;1.65;0.95;;;;;;;-145.79;98.40;75838.72;5302846;28;20028;-74
2023/10/21 09:12:53;;;;;;;5.68;1.25;;;;;;;-145.79;98.64;75840.84;5302852;28;20439;-74
2023/10/21 09:15:35;;;;;;;2.92;1.48;;;;;;;-145.79;97.93;75857.78;5302297;28;20462;-74
2023/10/21 09:18:10;;;;;;;4.10;1.45;;;;;;;-145.79;98.95;75851.44;5301911;28;20499;-77
2023/10/21 09:20:47;;;;;;;1.52;1.05;;;;;;;-145.79;98.45;75851.44;5303921;28;20433;-76
2023/10/21 09:23:18;;;;;;;2.60;0.95;;;;;;;-145.79;98.45;75847.19;5303374;28;20079;-75
2023/10/21 09:25:51;;;;;;;2.28;1.30;;;;;;;-145.79;97.12;75859.91;5305366;28;20062;-73
2023/10/21 09:28:24;;;;;;;3.50;1.85;;;;;;;-145.79;96.03;75857.78;5300750;28;20072;-73
2023/10/21 09:31:01;;;;;;;2.88;1.10;;;;;;;-145.79;95.54;75857.78;5303465;28;20093;-74
2023/10/21 09:33:53;;;;;;;2.45;1.20;;;;;;;-145.79;95.98;75855.66;5293815;28;20033;-75
2023/10/21 09:36:25;;;;;;;1.65;1.00;;;;;;;-145.79;95.78;75851.44;5291624;28;20055;-74
2023/10/21 09:38:57;;;;;;;1.92;0.90;;;;;;;-145.79;94.65;75847.19;5300504;28;20027;-74
2023/10/21 09:41:29;;;;;;;2.15;1.20;;;;;;;-145.79;94.75;75849.31;5304386;28;20035;-75
2023/10/21 09:44:03;;;;;;;3.33;1.48;;;;;;;-145.79;94.84;75847.19;5304893;28;20424;-73
2023/10/21 09:46:36;;;;;;;3.45;1.33;;;;;;;-145.79;93.66;75847.19;5303789;28;20032;-73
2023/10/21 09:49:08;;;;;;;2.50;1.05;;;;;;;-145.79;94.46;75853.56;5303705;28;20422;-73
2023/10/21 09:51:56;;;;;;;2.33;0.80;;;;;;;-145.79;91.86;75842.97;5302032;28;20497;-72
2023/10/21 09:54:43;;;;;;;2.35;1.00;;;;;;;-145.79;91.62;75851.44;5301981;28;20043;-72
2023/10/21 09:57:15;;;;;;;3.83;1.10;;;;;;;-145.79;91.72;75857.78;5301162;28;20028;-74
2023/10/21 09:59:47;;;;;;;2.72;1.20;;;;;;;-145.79;90.61;75859.91;5301798;28;20502;-71
2023/10/21 10:02:20;;;;;;;1.77;0.95;;;;;;;-145.79;87.98;75849.31;5303326;28;20146;-71
2023/10/21 10:04:54;;;;;;;2.47;1.10;;;;;;;-145.79;87.33;75847.19;5303612;28;20028;-72
2023/10/21 10:07:26;;;;;;;3.95;1.20;;;;;;;-145.79;89.05;75851.44;5298496;28;20020;-72
2023/10/21 10:09:57;;;;;;;2.67;1.15;;;;;;;-145.79;87.26;75845.06;5296666;28;20024;-71
2023/10/21 10:12:38;;;;;;;2.55;1.20;;;;;;;-145.79;88.20;75834.47;5297404;28;20031;-71
2023/10/21 10:15:31;;;;;;;3.40;1.17;;;;;;;-145.79;88.49;75834.47;5304063;28;20060;-71
2023/10/21 10:18:05;;;;;;;3.45;1.70;;;;;;;-145.79;88.55;75828.13;5299253;28;20501;-71
2023/10/21 10:20:46;;;;;;;2.20;1.20;;;;;;;-145.79;87.83;75813.28;5296028;28;20066;-70
2023/10/21 10:23:24;;;;;;;4.25;1.38;;;;;;;-145.79;87.01;75809.06;5302858;28;20043;-70
2023/10/21 10:25:57;;;;;;;4.13;1.48;;;;;;;-145.79;84.39;75802.69;5298312;28;20486;-73
2023/10/21 10:28:31;;;;;;;6.32;1.42;;;;;;;-145.79;84.46;75800.56;5301522;28;20463;-75
2023/10/21 10:31:04;;;;;;;3.95;1.85;;;;;;;-145.79;83.40;75796.34;5302471;28;20403;-73
2023/10/21 10:33:35;;;;;;;2.85;1.15;;;;;;;-145.79;84.63;75773.03;5302012;28;20126;-80
2023/10/21 10:36:09;;;;;;;4.80;1.45;;;;;;;-145.79;84.28;75783.63;5283744;28;20115;-75
2023/10/21 10:38:45;;;;;;;2.60;1.23;;;;;;;-145.79;84.29;75775.16;5302028;28;20032;-74
2023/10/21 10:41:18;;;;;;;5.32;1.23;;;;;;;-145.79;81.71;75783.63;5298038;28;20032;-76
2023/10/21 10:43:55;;;;;;;4.22;1.60;;;;;;;-145.79;83.49;75787.88;5298057;28;20039;-74
2023/10/21 10:46:28;;;;;;;2.97;1.13;;;;;;;-145.79;82.74;75783.63;5287541;28;20411;-76
2023/10/21 10:49:08;;;;;;;3.33;1.48;;;;;;;-145.79;81.61;75785.75;5286935;28;20103;-77
2023/10/21 10:51:43;;;;;;;3.53;1.48;;;;;;;-145.79;82.67;75777.28;5293176;28;20070;-77
2023/10/21 10:54:17;;;;;;;3.78;1.80;;;;;;;-145.79;82.25;75768.78;5304582;28;20036;-75
2023/10/21 10:56:50;;;;;;;2.55;1.35;;;;;;;-145.79;80.78;75766.69;5304018;28;20494;-75
2023/10/21 10:59:27;;;;;;;3.30;1.40;;;;;;;-145.79;80.62;75770.91;5297417;28;20028;-75
2023/10/21 11:02:01;;;;;;;3.60;1.58;;;;;;;-145.79;80.71;75764.56;5302210;28;20495;-76
2023/10/21 11:04:32;;;;;;;4.32;1.95;;;;;;;-145.79;81.13;75749.72;5303546;28;20038;-76
2023/10/21 11:07:03;;;;;;;7.00;1.92;;;;;;;-145.79;77.79;75756.09;5301237;28;20032;-76
2023/10/21 11:09:35;;;;;;;3.00;1.48;;;;;;;-145.79;77.71;75749.72;5301368;28;20493;-76
2023/10/21 11:12:06;;;;;;;4.88;2.28;;;;;;;-145.79;76.88;75762.44;5279096;28;20039;-76
2023/10/21 11:14:38;;;;;;;2.80;1.30;;;;;;;-145.79;75.97;75787.88;5298979;28;20111;-75
2023/10/21 11:17:10;;;;;;;3.72;1.30;;;;;;;-145.79;76.88;75796.34;5264779;28;20390;-76
2023/10/21 11:19:41;;;;;;;3.90;1.60;;;;;;;-145.79;77.63;75783.63;5301190;28;20045;-77
2023/10/21 11:22:26;;;;;;;4.70;1.77;;;;;;;-145.79;78.58;75781.50;5297934;28;20055;-77
2023/10/21 11:24:58;;;;;;;5.80;1.90;;;;;;;-145.79;78.78;75781.50;5297903;28;20020;-75
2023/10/21 11:27:29;;;;;;;6.88;2.22;;;;;;;-145.79;79.64;75764.56;5301276;28;20035;-74
2023/10/21 11:30:07;;;;;;;8.02;2.08;;;;;;;-145.79;79.02;75775.16;5302635;28;20016;-74
2023/10/21 11:32:38;;;;;;;5.93;1.75;;;;;;;-145.79;77.48;75783.63;5300712;28;20016;-75
2023/10/21 11:35:12;;;;;;;2.25;1.02;;;;;;;-145.79;79.85;75783.63;5290095;28;20035;-75
2023/10/21 11:37:44;;;;;;;3.53;1.90;;;;;;;-145.79;78.53;75789.97;5302175;28;20021;-74
2023/10/21 11:40:17;;;;;;;4.75;1.90;;;;;;;-145.79;77.57;75792.09;5283019;28;20028;-76
2023/10/21 11:42:59;;;;;;;3.92;1.75;;;;;;;-145.79;78.24;75783.63;5282325;28;20024;-73
2023/10/21 11:45:30;;;;;;;5.20;1.60;;;;;;;-145.79;77.60;75777.28;5282688;28;20029;-74
2023/10/21 11:48:08;;;;;;;6.43;1.85;;;;;;;-145.79;76.47;75773.03;5281447;28;20051;-77
2023/10/21 11:50:43;;;;;;;7.90;3.63;;;;;;;-145.79;75.68;75785.75;5301920;28;20049;-78
2023/10/21 11:53:14;;;;;;;9.30;2.22;;;;;;;-145.79;75.39;75783.63;5301300;28;20466;-73
2023/10/21 12:00:18;;;;;;;5.78;2.00;;;;;;;-145.79;76.81;75789.97;5298278;28;20408;-73
2023/10/21 12:16:03;;;;;;;4.30;1.73;;;;;;;-145.79;73.90;75762.44;5274405;28;20039;-74
2023/10/21 12:19:06;;;;;;;5.90;2.05;;;;;;;-145.79;72.21;75770.91;5303320;28;20054;-73
2023/10/21 12:33:19;;;;;;;3.85;1.70;;;;;;;-145.79;73.88;75783.63;5229895;28;20028;-75
2023/10/21 12:41:25;;;;;;;5.95;2.30;;;;;;;-145.79;74.51;75779.38;5298480;28;20060;-77
2023/10/21 12:43:57;;;;;;;;;;;;;;;-145.79;74.39;75764.56;5302461;28;20027;-77
2023/10/21 12:46:31;;;;;;;7.47;2.80;;;;;;;-145.79;73.68;75775.16;5305513;28;20401;-77
2023/10/21 12:49:07;;;;;;;7.00;2.97;;;;;;;-145.79;74.09;75764.56;5303652;28;20519;-75
2023/10/21 12:51:39;;;;;;;6.38;2.17;;;;;;;-145.79;75.28;75760.31;5303832;28;20459;-77
2023/10/21 12:54:10;;;;;;;4.78;1.95;;;;;;;-145.79;74.87;75762.44;5305553;28;20027;-76
2023/10/21 12:56:41;;;;;;;6.85;1.70;;;;;;;-145.79;74.95;75770.91;5304256;28;20016;-76
2023/10/21 12:59:13;;;;;;;6.43;2.28;;;;;;;-145.79;73.85;75775.16;5302095;28;20040;-76
2023/10/21 13:01:44;;;;;;;6.28;1.60;;;;;;;-145.79;74.26;75775.16;5302736;28;20391;-78
2023/10/21 13:04:18;;;;;;;4.78;1.52;;;;;;;-145.79;73.68;75789.97;5303199;28;20115;-77
2023/10/21 13:06:49;;;;;;;6.70;2.42;;;;;;;-145.79;73.89;75783.63;5304801;28;20019;-77
2023/10/21 13:09:21;;;;;;;6.03;1.70;;;;;;;-145.79;72.00;75796.34;5305458;28;20020;-76
2023/10/21 13:11:53;;;;;;;8.90;3.17;;;;;;;-145.79;72.46;75794.22;5304282;28;20117;-77
2023/10/21 13:14:27;;;;;;;5.07;2.80;;;;;;;-145.79;73.32;75783.63;5304200;28;20020;-75
2023/10/21 13:16:59;;;;;;;5.15;2.42;;;;;;;-145.79;72.54;75792.09;5302435;28;20080;-77
2023/10/21 13:19:30;;;;;;;7.90;2.50;;;;;;;-145.79;72.07;75787.88;5301674;28;20027;-75
2023/10/21 13:22:05;;;;;;;9.10;2.78;;;;;;;-145.79;72.03;75785.75;5304607;28;20042;-81
2023/10/21 13:24:37;;;;;;;7.75;2.13;;;;;;;-145.79;71.07;75785.75;5305337;28;20048;-76
2023/10/21 13:27:08;;;;;;;6.80;2.95;;;;;;;-145.79;71.36;75783.63;5305303;28;20051;-78
2023/10/21 13:29:40;;;;;;;5.80;2.30;;;;;;;-145.79;71.54;75792.09;5305153;28;20054;-78
2023/10/21 13:32:16;;;;;;;8.55;2.30;;;;;;;-145.79;70.42;75794.22;5302224;28;20020;-78
2023/10/21 13:34:47;;;;;;;11.30;3.80;;;;;;;-145.79;69.74;75796.34;5303890;28;20032;-79
2023/10/21 13:37:20;;;;;;;7.55;2.20;;;;;;;-145.79;70.08;75794.22;5305580;28;20031;-79
2023/10/21 13:39:52;;;;;;;6.80;3.45;;;;;;;-145.79;69.22;75800.56;5300125;28;20020;-78
2023/10/21 13:42:23;;;;;;;6.30;2.83;;;;;;;-145.79;69.21;75794.22;5303411;28;20032;-78
2023/10/21 13:44:54;;;;;;;5.82;2.72;;;;;;;-145.79;68.50;75792.09;5299948;28;20027;-78
2023/10/21 13:47:26;;;;;;;10.43;2.70;;;;;;;-145.79;67.77;75796.34;5303719;28;20032;-79
2023/10/21 13:49:58;;;;;;;8.45;3.20;;;;;;;-145.79;69.20;75800.56;5304668;28;20040;-79
2023/10/21 13:52:29;;;;;;;4.18;1.85;;;;;;;-145.79;70.25;75792.09;5304174;28;20048;-79
2023/10/21 13:55:03;;;;;;;8.85;4.25;;;;;;;-145.79;69.83;75802.69;5295312;28;20117;-79
2023/10/21 13:57:35;;;;;;;4.95;2.10;;;;;;;-145.79;69.48;75802.69;5298876;28;20048;-78
2023/10/21 14:00:25;;;;;;;6.18;2.38;;;;;;;-145.79;71.22;75800.56;5300430;28;20060;-79
2023/10/21 14:03:11;;;;;;;6.05;2.33;;;;;;;-145.79;70.36;75806.94;5301528;28;20486;-79
2023/10/21 14:05:45;;;;;;;12.27;3.00;;;;;;;-145.79;70.30;75804.81;5299760;28;20095;-77
2023/10/21 14:08:18;;;;;;;7.72;3.35;;;;;;;-145.79;71.74;75804.81;5303170;28;20027;-78
2023/10/21 14:10:51;;;;;;;11.23;4.55;;;;;;;-145.79;72.06;75804.81;5296757;28;20066;-76
2023/10/21 14:13:26;;;;;;;7.72;2.47;;;;;;;-145.79;72.33;75811.19;5304256;28;20032;-74
2023/10/21 14:16:08;;;;;;;7.75;3.40;;;;;;;-145.79;73.58;75811.19;5301016;28;20043;-76
2023/10/21 14:18:42;;;;;;;8.65;2.30;;;;;;;-145.79;73.32;75817.53;5302826;28;20435;-77
2023/10/21 14:21:13;;;;;;;6.65;3.40;;;;;;;-145.79;74.81;75821.75;5300086;28;20066;-78
2023/10/21 14:23:45;;;;;;;12.88;3.00;;;;;;;-145.79;75.22;75834.47;5302378;28;20462;-77
2023/10/21 14:26:16;;;;;;;9.02;2.60;;;;;;;-145.79;76.05;75834.47;5302207;28;20020;-75
2023/10/21 14:28:51;;;;;;;7.20;2.10;;;;;;;-145.79;77.63;75840.84;5301418;28;20056;-75
2023/10/21 14:31:31;;;;;;;6.68;2.25;;;;;;;-145.79;78.35;75849.31;5287434;28;20032;-77
2023/10/21 14:34:03;;;;;;;4.90;2.22;;;;;;;-145.79;78.80;75859.91;5289855;28;20561;-79
2023/10/21 14:36:37;;;;;;;6.13;2.42;;;;;;;-145.79;81.44;75838.72;5299503;28;20039;-78
2023/10/21 14:39:09;;;;;;;7.22;3.22;;;;;;;-145.79;80.11;75864.16;5297768;28;20379;-79
2023/10/21 14:41:40;;;;;;;9.65;2.70;;;;;;;-145.79;81.79;75859.91;5286601;28;20033;-79
2023/10/21 14:44:11;;;;;;;5.95;2.67;;;;;;;-145.79;82.39;75859.91;5288759;28;20027;-79
2023/10/21 14:46:46;;;;;;;6.53;2.70;;;;;;;-145.79;83.05;75868.38;5304308;28;20032;-79
2023/10/21 14:49:20;;;;;;;5.78;2.65;;;;;;;-145.79;82.89;75872.63;5303572;28;20024;-79
2023/10/21 14:51:52;;;;;;;7.97;5.18;;;;;;;-145.79;84.00;75859.91;5302856;28;20032;-77
2023/10/21 14:54:24;;;;;;;5.13;2.05;;;;;;;-145.79;82.91;75864.16;5303067;28;20031;-79
2023/10/21 14:56:56;;;;;;;7.63;2.28;;;;;;;-145.79;81.18;75883.22;5299533;28;20051;-75
2023/10/21 14:59:27;;;;;;;5.78;2.15;;;;;;;-145.79;81.90;75876.84;5298020;28;20028;-72
2023/10/21 15:02:01;;;;;;;6.82;2.25;;;;;;;-145.79;82.53;75876.84;5302204;28;20096;-71
2023/10/21 15:04:33;;;;;;;7.63;2.45;;;;;;;-145.79;81.70;75889.56;5302916;28;20040;-72
2023/10/21 15:07:05;;;;;;;5.82;2.05;;;;;;;-145.79;82.03;75893.81;5299262;28;20027;-72
2023/10/21 15:09:39;;;;;;;6.13;2.03;;;;;;;-145.79;82.94;75893.81;5297252;28;20368;-76
2023/10/21 15:12:10;;;;;;;5.13;1.95;;;;;;;-145.79;83.08;75893.81;5299437;28;20020;-74
2023/10/21 15:14:48;;;;;;;7.85;4.47;;;;;;;-145.79;83.08;75898.03;5300559;28;20031;-72
2023/10/21 15:17:19;;;;;;;7.40;2.20;;;;;;;-145.79;83.01;75906.53;5301362;28;20021;-72
2023/10/21 15:19:50;;;;;;;6.70;2.97;;;;;;;-145.79;83.53;75908.63;5302514;28;20090;-73
2023/10/21 15:22:22;;;;;;;6.75;1.90;;;;;;;-145.79;83.70;75917.13;5302526;28;20051;-73
2023/10/21 15:25:06;;;;;;;6.47;2.85;;;;;;;-145.79;83.76;75923.47;5303507;28;20447;-74
2023/10/21 15:27:41;;;;;;;5.88;2.45;;;;;;;-145.79;85.03;75921.34;5302437;28;20016;-72
2023/10/21 15:30:16;;;;;;;6.10;2.10;;;;;;;-145.79;84.67;75925.59;5294876;28;20499;-71
2023/10/21 15:32:50;;;;;;;5.35;2.35;;;;;;;-145.79;86.44;75925.59;5294469;28;20020;-71
2023/10/21 15:35:21;;;;;;;6.72;2.53;;;;;;;-145.79;86.49;75936.19;5299513;28;20428;-72
2023/10/21 15:37:53;;;;;;;5.50;2.20;;;;;;;-145.79;86.74;75940.41;5299661;28;20031;-72
2023/10/21 15:40:27;;;;;;;5.38;2.15;;;;;;;-145.79;85.85;75944.66;5301990;28;20031;-73
2023/10/21 15:42:58;;;;;;;4.55;2.97;;;;;;;-145.79;88.13;75953.13;5300777;28;20467;-72
2023/10/21 15:45:29;;;;;;;6.60;3.08;;;;;;;-145.79;88.18;75957.38;5307096;28;20022;-74
2023/10/21 15:48:01;;;;;;;4.20;2.55;;;;;;;-145.79;89.46;75965.84;5304503;28;21328;-73
2023/10/21 15:50:32;;;;;;;5.05;2.28;;;;;;;-145.79;90.47;75967.97;5306609;28;20078;-73
2023/10/21 15:53:03;;;;;;;9.82;2.85;;;;;;;-145.79;91.21;75976.44;5306402;28;20107;-75
2023/10/21 15:55:35;;;;;;;5.50;2.17;;;;;;;-145.79;92.08;75978.56;5305774;28;20050;-75
2023/10/21 15:58:06;;;;;;;7.38;3.20;;;;;;;-145.79;92.22;75995.50;5306451;28;20039;-72
2023/10/21 16:00:37;;;;;;;7.40;3.88;;;;;;;-145.79;92.75;76001.88;5306096;28;20143;-72
2023/10/21 16:03:10;;;;;;;9.43;4.10;;;;;;;-145.79;92.98;75989.16;5305500;28;20032;-72
2023/10/21 16:05:41;;;;;;;6.63;2.13;;;;;;;-145.79;93.43;75995.50;5305468;28;20540;-73
2023/10/21 16:08:13;;;;;;;7.60;2.70;;;;;;;-145.79;93.29;75995.50;5305517;28;20028;-73
2023/10/21 16:10:44;;;;;;;7.13;2.42;;;;;;;-145.79;93.38;76004.00;5306876;28;20020;-73
2023/10/21 16:13:15;;;;;;;8.13;2.90;;;;;;;-145.79;93.77;76006.09;5306591;28;20028;-75
2023/10/21 16:15:53;;;;;;;4.82;2.20;;;;;;;-145.79;93.03;76012.47;5306422;28;20024;-76
2023/10/21 16:18:25;;;;;;;6.28;2.63;;;;;;;-145.79;94.18;76010.34;5300245;28;20103;-76
2023/10/21 16:20:56;;;;;;;6.95;2.55;;;;;;;-145.79;94.71;76012.47;5299882;28;20111;-76
2023/10/21 16:23:28;;;;;;;8.25;2.30;;;;;;;-145.79;93.60;76020.94;5298377;28;20032;-76
2023/10/21 16:26:02;;;;;;;4.00;1.85;;;;;;;-145.79;93.29;76025.19;5306836;28;20023;-75
2023/10/21 16:28:33;;;;;;;6.47;2.30;;;;;;;-145.79;93.42;76025.19;5305856;28;20067;-74
2023/10/21 16:31:06;;;;;;;5.03;2.22;;;;;;;-145.79;93.35;76037.88;5304119;28;20056;-74
2023/10/21 16:33:37;;;;;;;6.53;2.10;;;;;;;-145.79;93.39;76042.13;5306097;28;20031;-74
2023/10/21 16:36:08;;;;;;;6.40;2.08;;;;;;;-145.79;94.20;76037.88;5305562;28;20515;-75
2023/10/21 16:38:40;;;;;;;9.77;6.30;;;;;;;-145.79;94.56;76029.41;5305557;28;20051;-75
2023/10/21 16:41:13;;;;;;;5.22;1.90;;;;;;;-145.79;95.07;76046.38;5303642;28;20063;-75
2023/10/21 16:43:51;;;;;;;3.95;1.80;;;;;;;-145.79;94.45;76042.13;5305394;28;20028;-74
2023/10/21 16:46:23;;;;;;;6.75;2.45;;;;;;;-145.79;93.97;76044.25;5306409;28;20031;-75
2023/10/21 16:48:54;;;;;;;5.57;2.25;;;;;;;-145.79;93.47;76042.13;5305863;28;20024;-75
2023/10/21 16:51:25;;;;;;;6.18;2.45;;;;;;;-145.79;93.35;76040.00;5305269;28;20062;-75
2023/10/21 16:53:57;;;;;;;6.10;2.00;;;;;;;-145.79;94.13;76046.38;5305138;28;20114;-75
